createdAt,value
2023-03-04T00:00:43.135Z,-0.32
2023-03-04T00:03:15.320Z,-0.23
2023-03-04T00:05:42.401Z,-0.32
2023-03-04T00:08:09.011Z,-0.31
2023-03-04T00:10:35.474Z,-0.15
2023-03-04T00:13:02.596Z,-0.20
2023-03-04T00:15:29.111Z,-0.21
2023-03-04T00:17:55.990Z,-0.08
2023-03-04T00:20:22.551Z,0.03
2023-03-04T00:22:48.989Z,0.10
2023-03-04T00:25:15.791Z,-0.02
2023-03-04T00:27:42.215Z,-0.11
2023-03-04T00:30:10.038Z,0.04
2023-03-04T00:32:36.696Z,0.07
2023-03-04T00:35:04.292Z,0.18
2023-03-04T00:37:31.068Z,0.17
2023-03-04T00:39:57.476Z,0.18
2023-03-04T00:42:24.090Z,0.26
2023-03-04T00:44:51.636Z,0.12
2023-03-04T00:47:18.060Z,0.30
2023-03-04T00:49:44.518Z,0.21
2023-03-04T00:52:11.100Z,0.32
2023-03-04T00:54:37.550Z,0.30
2023-03-04T00:57:03.949Z,0.18
2023-03-04T00:59:30.474Z,0.15
2023-03-04T01:01:57.189Z,0.20
2023-03-04T01:04:24.023Z,0.20
2023-03-04T01:06:50.562Z,0.27
2023-03-04T01:09:17.470Z,0.22
2023-03-04T01:11:43.956Z,0.31
2023-03-04T01:14:10.474Z,0.38
2023-03-04T01:16:37.681Z,0.32
2023-03-04T01:19:04.103Z,0.39
2023-03-04T01:21:30.609Z,0.31
2023-03-04T01:23:56.965Z,0.32
2023-03-04T01:26:23.409Z,0.35
2023-03-04T01:28:49.863Z,0.31
2023-03-04T01:31:16.305Z,0.44
2023-03-04T01:33:42.873Z,0.44
2023-03-04T01:36:09.565Z,0.35
2023-03-04T01:38:36.073Z,0.57
2023-03-04T01:41:03.028Z,0.43
2023-03-04T01:43:30.838Z,0.54
2023-03-04T01:45:58.370Z,0.45
2023-03-04T01:48:28.955Z,0.55
2023-03-04T01:50:56.067Z,0.58
2023-03-04T01:53:25.704Z,0.69
2023-03-04T01:55:56.211Z,0.79
2023-03-04T01:58:26.812Z,0.54
2023-03-04T02:00:53.241Z,0.41
2023-03-04T02:03:20.558Z,0.40
2023-03-04T02:05:50.668Z,0.36
2023-03-04T02:08:19.737Z,0.33
2023-03-04T02:10:47.493Z,0.33
2023-03-04T02:13:15.507Z,0.38
2023-03-04T02:15:46.367Z,0.40
2023-03-04T02:18:22.017Z,0.40
2023-03-04T02:20:58.166Z,0.53
2023-03-04T02:24:17.707Z,0.58
2023-03-04T02:26:47.107Z,0.64
2023-03-04T02:29:15.848Z,0.78
2023-03-04T02:31:48.747Z,0.52
2023-03-04T02:34:17.053Z,0.56
2023-03-04T02:36:45.550Z,0.50
2023-03-04T02:39:23.118Z,0.47
2023-03-04T02:41:52.181Z,0.63
2023-03-04T02:44:21.317Z,0.62
2023-03-04T02:46:48.081Z,0.59
2023-03-04T02:49:14.956Z,0.61
2023-03-04T02:51:41.396Z,0.52
2023-03-04T02:54:23.356Z,0.41
2023-03-04T02:56:54.898Z,0.54
2023-03-04T02:59:22.636Z,0.59
2023-03-04T03:01:49.424Z,0.66
2023-03-04T03:04:15.946Z,0.51
2023-03-04T03:06:42.442Z,0.48
2023-03-04T03:09:09.138Z,0.67
2023-03-04T03:11:35.709Z,0.60
2023-03-04T03:14:02.469Z,0.60
2023-03-04T03:16:28.993Z,0.69
2023-03-04T03:18:55.529Z,0.66
2023-03-04T03:21:21.977Z,0.73
2023-03-04T03:23:48.871Z,0.79
2023-03-04T03:26:15.895Z,0.67
2023-03-04T03:28:42.502Z,0.81
2023-03-04T03:31:09.175Z,0.77
2023-03-04T03:33:36.032Z,0.78
2023-03-04T03:36:02.696Z,0.75
2023-03-04T03:38:29.306Z,0.81
2023-03-04T03:40:55.767Z,0.89
2023-03-04T03:43:22.224Z,0.66
2023-03-04T03:45:48.769Z,0.67
2023-03-04T03:48:15.751Z,0.74
2023-03-04T03:50:42.190Z,0.92
2023-03-04T03:53:08.696Z,0.71
2023-03-04T03:55:35.326Z,0.76
2023-03-04T03:58:01.841Z,0.81
2023-03-04T04:00:28.310Z,0.78
2023-03-04T04:02:56.549Z,0.83
2023-03-04T04:05:23.033Z,0.72
2023-03-04T04:07:49.518Z,0.76
2023-03-04T04:10:16.137Z,0.84
2023-03-04T04:12:43.931Z,0.97
2023-03-04T04:15:12.287Z,0.83
2023-03-04T04:17:39.010Z,0.84
2023-03-04T04:20:07.678Z,0.95
2023-03-04T04:22:34.372Z,0.90
2023-03-04T04:25:00.837Z,0.88
2023-03-04T04:27:27.380Z,1.00
2023-03-04T04:29:53.763Z,0.91
2023-03-04T04:32:20.193Z,0.88
2023-03-04T04:34:46.666Z,0.88
2023-03-04T04:37:13.053Z,0.94
2023-03-04T04:39:39.442Z,0.84
2023-03-04T04:42:05.981Z,0.85
2023-03-04T04:44:32.500Z,0.91
2023-03-04T04:46:58.910Z,0.81
2023-03-04T04:49:25.401Z,1.01
2023-03-04T04:51:51.844Z,0.92
2023-03-04T04:54:18.236Z,0.78
2023-03-04T04:56:44.714Z,0.92
2023-03-04T04:59:11.167Z,1.07
2023-03-04T05:01:37.575Z,1.00
2023-03-04T05:04:04.357Z,0.92
2023-03-04T05:06:30.959Z,0.79
2023-03-04T05:08:57.348Z,1.02
2023-03-04T05:11:24.137Z,0.91
2023-03-04T05:13:50.866Z,1.08
2023-03-04T05:16:18.007Z,1.26
2023-03-04T05:18:44.672Z,1.02
2023-03-04T05:21:11.340Z,0.83
2023-03-04T05:23:40.165Z,0.85
2023-03-04T05:26:07.787Z,0.85
2023-03-04T05:28:34.774Z,0.77
2023-03-04T05:31:01.204Z,0.88
2023-03-04T05:33:27.740Z,1.15
2023-03-04T05:35:55.076Z,1.11
2023-03-04T05:38:21.838Z,0.96
2023-03-04T05:40:49.274Z,0.96
2023-03-04T05:43:16.159Z,0.96
2023-03-04T05:45:42.667Z,1.05
2023-03-04T05:48:09.475Z,1.07
2023-03-04T05:50:35.968Z,0.99
2023-03-04T05:53:02.522Z,1.03
2023-03-04T05:55:30.045Z,1.02
2023-03-04T05:57:57.331Z,1.16
2023-03-04T06:00:24.558Z,1.06
2023-03-04T06:02:51.024Z,0.95
2023-03-04T06:05:17.803Z,1.07
2023-03-04T06:07:44.857Z,1.14
2023-03-04T06:10:13.783Z,1.16
2023-03-04T06:12:40.704Z,1.11
2023-03-04T06:15:09.981Z,1.06
2023-03-04T06:17:39.116Z,1.12
2023-03-04T06:20:08.891Z,1.28
2023-03-04T06:22:35.529Z,1.15
2023-03-04T06:25:02.225Z,1.08
2023-03-04T06:27:28.976Z,1.22
2023-03-04T06:29:56.372Z,1.35
2023-03-04T06:32:23.145Z,1.37
2023-03-04T06:34:49.722Z,1.25
2023-03-04T06:37:16.322Z,1.40
2023-03-04T06:39:42.734Z,1.48
2023-03-04T06:42:09.528Z,1.37
2023-03-04T06:44:35.960Z,1.32
2023-03-04T06:47:02.655Z,1.52
2023-03-04T06:49:29.139Z,1.54
2023-03-04T06:51:55.886Z,1.54
2023-03-04T06:54:22.294Z,1.67
2023-03-04T06:56:48.703Z,1.73
2023-03-04T06:59:15.607Z,1.74
2023-03-04T07:01:42.085Z,1.74
2023-03-04T07:04:08.732Z,1.82
2023-03-04T07:06:35.211Z,1.95
2023-03-04T07:09:01.653Z,1.90
2023-03-04T07:11:28.251Z,1.93
2023-03-04T07:13:54.738Z,2.17
2023-03-04T07:16:22.675Z,2.32
2023-03-04T07:18:49.945Z,2.25
2023-03-04T07:21:18.016Z,2.20
2023-03-04T07:23:44.780Z,2.23
2023-03-04T07:26:11.376Z,2.11
2023-03-04T07:28:38.073Z,2.04
2023-03-04T07:31:11.228Z,2.08
2023-03-04T07:33:37.759Z,2.21
2023-03-04T07:36:04.531Z,2.19
2023-03-04T07:38:31.100Z,2.23
2023-03-04T07:40:58.319Z,2.33
2023-03-04T07:43:24.941Z,2.41
2023-03-04T07:45:51.524Z,2.38
2023-03-04T07:48:17.972Z,2.36
2023-03-04T07:50:44.494Z,2.44
2023-03-04T07:53:10.881Z,2.54
2023-03-04T07:55:38.657Z,2.54
2023-03-04T07:58:05.482Z,2.59
2023-03-04T08:00:32.197Z,2.71
2023-03-04T08:02:58.751Z,2.75
2023-03-04T08:05:25.214Z,2.66
2023-03-04T08:07:51.753Z,2.75
2023-03-04T08:10:18.191Z,2.86
2023-03-04T08:12:44.602Z,2.91
2023-03-04T08:15:11.617Z,2.98
2023-03-04T08:17:38.131Z,3.07
2023-03-04T08:20:04.974Z,2.91
2023-03-04T08:22:32.060Z,2.99
2023-03-04T08:24:58.526Z,2.97
2023-03-04T08:27:25.146Z,2.87
2023-03-04T08:29:51.604Z,2.98
2023-03-04T08:32:18.479Z,3.08
2023-03-04T08:34:45.395Z,3.22
2023-03-04T08:37:11.877Z,3.24
2023-03-04T08:39:38.325Z,3.21
2023-03-04T08:42:05.106Z,3.25
2023-03-04T08:44:31.977Z,3.32
2023-03-04T08:47:00.106Z,3.29
2023-03-04T08:49:26.863Z,3.37
2023-03-04T08:51:53.306Z,3.58
2023-03-04T08:54:20.604Z,3.55
2023-03-04T08:56:47.154Z,3.54
2023-03-04T08:59:14.004Z,3.74
2023-03-04T09:01:40.490Z,3.77
2023-03-04T09:04:07.173Z,3.88
2023-03-04T09:06:33.638Z,3.95
2023-03-04T09:09:00.135Z,3.96
2023-03-04T09:11:26.644Z,3.80
2023-03-04T09:13:54.494Z,3.82
2023-03-04T09:16:21.735Z,3.78
2023-03-04T09:18:48.341Z,3.81
2023-03-04T09:21:15.013Z,3.88
2023-03-04T09:23:41.543Z,3.87
2023-03-04T09:26:16.663Z,3.93
2023-03-04T09:28:43.458Z,3.97
2023-03-04T09:31:14.470Z,4.08
2023-03-04T09:33:42.979Z,4.17
2023-03-04T09:36:11.262Z,4.18
2023-03-04T09:38:38.820Z,4.20
2023-03-04T09:41:10.945Z,4.15
2023-03-04T09:43:39.925Z,4.30
2023-03-04T09:46:13.189Z,4.19
2023-03-04T09:48:46.556Z,4.30
2023-03-04T09:51:20.517Z,4.30
2023-03-04T09:54:11.089Z,4.24
2023-03-04T09:56:40.406Z,4.29
2023-03-04T09:59:18.813Z,4.43
2023-03-04T10:01:50.621Z,4.43
2023-03-04T10:04:34.962Z,4.50
2023-03-04T10:07:03.127Z,4.51
2023-03-04T10:09:37.278Z,4.60
2023-03-04T10:12:07.817Z,4.56
2023-03-04T10:14:43.773Z,4.56
2023-03-04T10:17:17.119Z,4.68
2023-03-04T10:19:49.842Z,4.65
2023-03-04T10:22:36.313Z,4.71
2023-03-04T10:25:30.183Z,4.60
2023-03-04T10:28:04.715Z,4.68
2023-03-04T10:30:37.921Z,4.84
2023-03-04T10:33:20.564Z,5.43
2023-03-04T10:35:58.901Z,6.46
2023-03-04T10:38:25.560Z,6.23
2023-03-04T10:40:51.960Z,6.90
2023-03-04T10:43:20.744Z,7.03
2023-03-04T10:45:48.890Z,6.81
2023-03-04T10:48:31.363Z,7.09
2023-03-04T10:51:19.868Z,7.27
2023-03-04T10:53:48.797Z,7.26
2023-03-04T10:56:34.073Z,6.83
2023-03-04T10:59:28.772Z,6.19
2023-03-04T11:01:55.266Z,6.07
2023-03-04T11:04:27.007Z,6.19
2023-03-04T11:06:54.224Z,6.33
2023-03-04T11:09:25.432Z,6.45
2023-03-04T11:11:54.602Z,6.54
2023-03-04T11:14:38.149Z,6.58
2023-03-04T11:17:17.865Z,6.76
2023-03-04T11:19:48.376Z,6.93
2023-03-04T11:22:18.193Z,6.56
2023-03-04T11:24:49.720Z,6.48
2023-03-04T11:27:23.992Z,6.33
2023-03-04T11:30:13.655Z,6.17
2023-03-04T11:32:46.149Z,6.26
2023-03-04T11:35:18.810Z,6.49
2023-03-04T11:38:06.027Z,6.37
2023-03-04T11:40:40.973Z,6.38
2023-03-04T11:43:19.363Z,6.65
2023-03-04T11:46:00.859Z,6.33
2023-03-04T11:49:07.232Z,6.24
2023-03-04T11:51:58.024Z,6.44
2023-03-04T11:54:35.208Z,6.36
2023-03-04T11:57:25.331Z,6.28
2023-03-04T12:00:04.615Z,6.15
2023-03-04T12:03:01.936Z,6.25
2023-03-04T12:05:34.123Z,6.42
2023-03-04T12:08:38.245Z,6.52
2023-03-04T12:11:13.507Z,6.47
2023-03-04T12:13:49.038Z,6.26
2023-03-04T12:16:30.270Z,6.03
2023-03-04T12:19:12.090Z,5.88
2023-03-04T12:21:59.013Z,5.86
2023-03-04T12:24:42.985Z,6.03
2023-03-04T12:27:27.733Z,6.13
2023-03-04T12:30:05.672Z,6.37
2023-03-04T12:32:37.378Z,6.32
2023-03-04T12:35:42.809Z,6.52
2023-03-04T12:38:46.909Z,6.70
2023-03-04T12:41:41.416Z,6.63
2023-03-04T12:44:13.644Z,6.55
2023-03-04T12:47:14.445Z,6.33
2023-03-04T12:49:43.902Z,6.44
2023-03-04T12:52:32.024Z,6.37
2023-03-04T12:55:10.340Z,6.22
2023-03-04T12:57:38.269Z,6.29
2023-03-04T13:00:32.984Z,6.13
2023-03-04T13:03:35.512Z,6.07
2023-03-04T13:06:15.386Z,6.03
2023-03-04T13:09:11.779Z,5.99
2023-03-04T13:12:03.946Z,6.02
2023-03-04T13:14:32.061Z,6.40
2023-03-04T13:17:01.812Z,6.41
2023-03-04T13:19:50.923Z,6.16
2023-03-04T13:22:38.984Z,6.18
2023-03-04T13:25:44.274Z,6.15
2023-03-04T13:28:13.484Z,6.20
2023-03-04T13:31:21.632Z,6.22
2023-03-04T13:33:53.199Z,6.37
2023-03-04T13:36:31.386Z,6.15
2023-03-04T13:39:00.416Z,6.22
2023-03-04T13:41:47.887Z,6.33
2023-03-04T13:44:34.691Z,6.39
2023-03-04T13:47:29.529Z,6.26
2023-03-04T13:50:26.914Z,6.32
2023-03-04T13:52:53.468Z,6.34
2023-03-04T13:55:32.181Z,6.40
2023-03-04T13:57:58.802Z,6.45
2023-03-04T14:00:26.974Z,6.42
2023-03-04T14:02:53.481Z,6.33
2023-03-04T14:05:19.935Z,6.34
2023-03-04T14:07:46.714Z,6.37
2023-03-04T14:10:13.802Z,6.41
2023-03-04T14:12:48.782Z,6.54
2023-03-04T14:15:25.213Z,6.81
2023-03-04T14:17:54.330Z,6.77
2023-03-04T14:20:23.821Z,6.71
2023-03-04T14:22:50.609Z,6.64
2023-03-04T14:25:36.814Z,6.52
2023-03-04T14:28:03.405Z,6.41
2023-03-04T14:30:42.344Z,6.35
2023-03-04T14:33:15.953Z,6.31
2023-03-04T14:35:48.525Z,6.31
2023-03-04T14:38:23.942Z,6.36
2023-03-04T14:40:58.999Z,6.25
2023-03-04T14:43:27.199Z,6.35
2023-03-04T14:45:58.038Z,6.25
2023-03-04T14:48:30.367Z,6.45
2023-03-04T14:50:57.744Z,6.53
2023-03-04T14:53:26.884Z,6.49
2023-03-04T14:56:04.608Z,6.53
2023-03-04T14:58:39.042Z,6.49
2023-03-04T15:01:18.492Z,6.46
2023-03-04T15:03:57.875Z,6.33
2023-03-04T15:06:27.120Z,6.18
2023-03-04T15:09:00.484Z,6.18
2023-03-04T15:11:31.617Z,6.22
2023-03-04T15:13:59.881Z,6.18
2023-03-04T15:16:53.395Z,6.00
2023-03-04T15:19:25.695Z,5.93
2023-03-04T15:22:03.802Z,5.81
2023-03-04T15:24:30.181Z,5.78
2023-03-04T15:26:56.915Z,5.78
2023-03-04T15:29:23.524Z,5.62
2023-03-04T15:31:51.673Z,5.66
2023-03-04T15:34:20.481Z,5.56
2023-03-04T15:36:50.394Z,5.70
2023-03-04T15:39:19.688Z,5.68
2023-03-04T15:41:46.891Z,5.60
2023-03-04T15:44:14.769Z,5.47
2023-03-04T15:46:41.278Z,5.54
2023-03-04T15:49:07.732Z,5.56
2023-03-04T15:51:34.341Z,5.48
2023-03-04T15:54:00.895Z,5.54
2023-03-04T15:56:30.696Z,5.53
2023-03-04T15:59:04.768Z,5.54
2023-03-04T16:01:31.224Z,5.59
2023-03-04T16:03:57.605Z,5.50
2023-03-04T16:06:28.712Z,5.60
2023-03-04T16:08:55.222Z,5.55
2023-03-04T16:11:26.993Z,5.51
2023-03-04T16:13:53.542Z,5.50
2023-03-04T16:16:20.118Z,5.62
2023-03-04T16:18:46.871Z,5.58
2023-03-04T16:21:16.674Z,5.51
2023-03-04T16:23:46.278Z,5.47
2023-03-04T16:26:15.798Z,5.47
2023-03-04T16:28:42.853Z,5.52
2023-03-04T16:31:10.504Z,5.51
2023-03-04T16:33:37.156Z,5.53
2023-03-04T16:36:05.303Z,5.54
2023-03-04T16:38:34.499Z,5.47
2023-03-04T16:41:04.479Z,5.48
2023-03-04T16:43:30.961Z,5.44
2023-03-04T16:45:57.463Z,5.51
2023-03-04T16:48:23.939Z,5.55
2023-03-04T16:50:50.496Z,5.53
2023-03-04T16:53:39.633Z,5.51
2023-03-04T16:56:19.451Z,5.54
2023-03-04T16:58:47.007Z,5.54
2023-03-04T17:01:18.776Z,5.42
2023-03-04T17:03:45.864Z,5.41
2023-03-04T17:06:20.860Z,5.51
2023-03-04T17:08:47.405Z,5.49
2023-03-04T17:11:30.311Z,5.54
2023-03-04T17:13:56.781Z,5.60
2023-03-04T17:16:23.435Z,5.42
2023-03-04T17:18:50.343Z,5.48
2023-03-04T17:21:19.649Z,5.46
2023-03-04T17:23:46.257Z,5.48
2023-03-04T17:26:13.490Z,5.38
2023-03-04T17:28:39.833Z,5.36
2023-03-04T17:31:11.632Z,5.37
2023-03-04T17:33:38.800Z,5.27
2023-03-04T17:36:05.602Z,5.35
2023-03-04T17:38:32.164Z,5.37
2023-03-04T17:41:07.307Z,5.30
2023-03-04T17:43:34.180Z,5.30
2023-03-04T17:46:08.788Z,5.26
2023-03-04T17:48:35.439Z,5.36
2023-03-04T17:51:02.595Z,5.35
2023-03-04T17:53:29.278Z,5.23
2023-03-04T17:56:04.424Z,5.23
2023-03-04T17:58:33.232Z,5.24
2023-03-04T18:01:14.808Z,5.24
2023-03-04T18:03:41.271Z,5.25
2023-03-04T18:06:07.968Z,5.29
2023-03-04T18:08:34.640Z,5.19
2023-03-04T18:11:01.100Z,5.16
2023-03-04T18:13:27.663Z,5.18
2023-03-04T18:15:55.250Z,5.07
2023-03-04T18:18:22.015Z,5.06
2023-03-04T18:20:48.671Z,5.02
2023-03-04T18:23:15.542Z,5.08
2023-03-04T18:25:42.571Z,5.03
2023-03-04T18:28:11.314Z,5.02
2023-03-04T18:30:38.032Z,5.01
2023-03-04T18:33:04.786Z,4.98
2023-03-04T18:35:31.490Z,4.98
2023-03-04T18:37:59.825Z,4.99
2023-03-04T18:40:26.242Z,4.98
2023-03-04T18:42:52.645Z,4.90
2023-03-04T18:45:21.428Z,4.88
2023-03-04T18:47:50.546Z,4.87
2023-03-04T18:50:18.489Z,4.87
2023-03-04T18:52:44.980Z,4.79
2023-03-04T18:55:13.178Z,4.82
2023-03-04T18:57:42.612Z,4.86
2023-03-04T19:00:12.868Z,4.87
2023-03-04T19:02:58.156Z,4.88
2023-03-04T19:05:27.767Z,4.89
2023-03-04T19:07:54.939Z,4.85
2023-03-04T19:10:21.897Z,4.80
2023-03-04T19:12:48.314Z,4.81
2023-03-04T19:15:15.352Z,4.76
2023-03-04T19:17:45.147Z,4.78
2023-03-04T19:20:13.223Z,4.75
2023-03-04T19:22:39.699Z,4.73
2023-03-04T19:25:06.764Z,4.72
2023-03-04T19:27:33.441Z,4.76
2023-03-04T19:29:59.964Z,4.72
2023-03-04T19:32:26.497Z,4.70
2023-03-04T19:34:53.477Z,4.70
2023-03-04T19:37:19.968Z,4.68
2023-03-04T19:39:48.932Z,4.66
2023-03-04T19:42:15.679Z,4.78
2023-03-04T19:44:44.806Z,4.72
2023-03-04T19:47:11.583Z,4.67
2023-03-04T19:49:38.069Z,4.60
2023-03-04T19:52:05.423Z,4.60
2023-03-04T19:54:31.914Z,4.60
2023-03-04T19:56:58.669Z,4.52
2023-03-04T19:59:25.261Z,4.48
2023-03-04T20:01:52.057Z,4.47
2023-03-04T20:04:20.936Z,4.40
2023-03-04T20:06:50.439Z,4.37
2023-03-04T20:09:18.325Z,4.32
2023-03-04T20:11:57.348Z,4.33
2023-03-04T20:14:26.444Z,4.25
2023-03-04T20:16:52.937Z,4.22
2023-03-04T20:19:19.384Z,4.19
2023-03-04T20:21:45.828Z,4.32
2023-03-04T20:24:12.952Z,4.25
2023-03-04T20:26:39.442Z,4.27
2023-03-04T20:29:06.316Z,4.34
2023-03-04T20:31:38.106Z,4.31
2023-03-04T20:34:05.366Z,4.29
2023-03-04T20:36:32.272Z,4.33
2023-03-04T20:39:04.199Z,4.30
2023-03-04T20:41:34.703Z,4.28
2023-03-04T20:44:01.713Z,4.43
2023-03-04T20:46:34.848Z,4.30
2023-03-04T20:49:02.779Z,4.29
2023-03-04T20:51:30.680Z,4.23
2023-03-04T20:53:57.797Z,4.28
2023-03-04T20:56:25.423Z,4.33
2023-03-04T20:58:54.003Z,4.41
2023-03-04T21:01:21.987Z,4.42
2023-03-04T21:03:49.811Z,4.40
2023-03-04T21:06:16.556Z,4.42
2023-03-04T21:08:44.294Z,4.45
2023-03-04T21:11:17.747Z,4.48
2023-03-04T21:13:44.804Z,4.45
2023-03-04T21:16:13.744Z,4.52
2023-03-04T21:18:41.714Z,4.55
2023-03-04T21:21:14.312Z,4.57
2023-03-04T21:23:41.295Z,4.58
2023-03-04T21:26:08.418Z,4.66
2023-03-04T21:28:34.857Z,4.63
2023-03-04T21:31:01.308Z,4.56
2023-03-04T21:33:36.254Z,4.56
2023-03-04T21:36:02.990Z,4.55
2023-03-04T21:38:29.521Z,4.55
2023-03-04T21:40:56.196Z,4.55
2023-03-04T21:43:23.698Z,4.54
2023-03-04T21:45:57.421Z,4.58
2023-03-04T21:48:25.059Z,4.53
2023-03-04T21:50:53.347Z,4.52
2023-03-04T21:53:23.401Z,4.56
2023-03-04T21:55:53.019Z,4.56
2023-03-04T21:58:20.266Z,4.51
2023-03-04T22:00:46.778Z,4.52
2023-03-04T22:03:13.451Z,4.53
2023-03-04T22:05:44.581Z,4.51
2023-03-04T22:08:12.591Z,4.50
2023-03-04T22:10:40.761Z,4.50
2023-03-04T22:13:12.915Z,4.50
2023-03-04T22:15:42.895Z,4.55
2023-03-04T22:18:12.600Z,4.54
2023-03-04T22:20:42.053Z,4.50
2023-03-04T22:23:09.273Z,4.54
2023-03-04T22:25:37.352Z,4.39
2023-03-04T22:28:04.247Z,4.41
2023-03-04T22:30:31.925Z,4.46
2023-03-04T22:32:58.473Z,4.44
2023-03-04T22:35:25.185Z,4.48
2023-03-04T22:37:52.094Z,4.45
2023-03-04T22:40:18.687Z,4.46
2023-03-04T22:42:47.233Z,4.46
2023-03-04T22:45:15.964Z,4.44
2023-03-04T22:47:50.972Z,4.51
2023-03-04T22:50:19.288Z,4.55
2023-03-04T22:52:47.301Z,4.57
2023-03-04T22:55:19.519Z,4.45
2023-03-04T22:57:46.440Z,4.37
2023-03-04T23:00:22.644Z,4.37
2023-03-04T23:02:50.866Z,4.43
2023-03-04T23:05:22.082Z,4.34
2023-03-04T23:07:50.382Z,4.27
2023-03-04T23:10:22.621Z,4.34
2023-03-04T23:12:49.785Z,4.29
2023-03-04T23:15:18.409Z,4.39
2023-03-04T23:17:46.274Z,4.27
2023-03-04T23:20:15.537Z,4.27
2023-03-04T23:22:41.994Z,4.33
2023-03-04T23:25:08.652Z,4.32
2023-03-04T23:27:37.184Z,4.33
2023-03-04T23:30:06.021Z,4.42
2023-03-04T23:32:32.688Z,4.32
2023-03-04T23:35:02.504Z,4.30
2023-03-04T23:37:28.957Z,4.39
2023-03-04T23:39:55.457Z,4.36
2023-03-04T23:42:23.256Z,4.36
2023-03-04T23:44:49.766Z,4.32
2023-03-04T23:47:16.344Z,4.38
2023-03-04T23:49:42.904Z,4.26
2023-03-04T23:52:09.328Z,4.24
2023-03-04T23:54:35.961Z,4.32
2023-03-04T23:57:02.715Z,4.33
2023-03-04T23:59:29.840Z,4.32
